Time;durP1;ratioP1;P1;durP2;ratioP2;P2;SDS_P1;SDS_P2;PMS_P1;PMS_P2;Temp;Humidity;BMP_temperature;BMP_pressure;BME280_temperature;BME280_humidity;BME280_pressure;Samples;Min_cycle;Max_cycle;Signal;HPM_P1;HPM_P2
2023/05/16 00:04:53;;;;;;;6.50;4.72;;;;;;;11.70;100.00;99665.81;4883334;58;1138971;-72
2023/05/16 00:09:59;;;;;;;6.60;5.00;;;;;;;11.66;100.00;99660.45;4902825;58;1138665;-73
2023/05/16 00:15:11;;;;;;;5.80;5.20;;;;;;;11.62;100.00;99659.42;4883593;58;1138686;-74
2023/05/16 00:20:17;;;;;;;12.70;5.20;;;;;;;11.63;100.00;99665.55;4850672;58;1138750;-72
2023/05/16 00:25:24;;;;;;;7.50;4.67;;;;;;;11.58;100.00;99664.69;4825705;59;1140835;-73
2023/05/16 00:30:30;;;;;;;6.27;4.80;;;;;;;11.54;100.00;99662.47;4903784;57;1138780;-73
2023/05/16 00:35:36;;;;;;;9.13;5.63;;;;;;;11.52;100.00;99669.23;5015917;57;1138947;-73
2023/05/16 00:40:42;;;;;;;7.97;4.43;;;;;;;11.52;100.00;99676.34;5123967;55;1138633;-73
2023/05/16 00:45:47;;;;;;;7.10;5.10;;;;;;;11.51;100.00;99685.27;5137509;55;1138709;-73
2023/05/16 00:50:54;;;;;;;9.23;4.33;;;;;;;11.50;100.00;99688.40;5043314;55;1138725;-74
2023/05/16 00:56:00;;;;;;;6.80;4.53;;;;;;;11.49;100.00;99700.45;5035648;56;1138852;-73
2023/05/16 01:01:06;;;;;;;5.27;4.73;;;;;;;11.45;100.00;99701.75;5004406;57;1138735;-73
2023/05/16 01:06:13;;;;;;;5.50;4.33;;;;;;;11.38;100.00;99706.77;5015681;57;1138693;-73
2023/05/16 01:11:40;;;;;;;7.67;4.17;;;;;;;11.35;100.00;99706.22;5035745;56;1145247;-73
2023/05/16 01:16:56;;;;;;;6.37;4.53;;;;;;;11.35;100.00;99712.84;5037331;56;1138744;-73
2023/05/16 01:22:18;;;;;;;3.50;3.20;;;;;;;11.36;100.00;99721.95;5099178;56;1138772;-74
2023/05/16 01:27:26;;;;;;;4.87;3.30;;;;;;;11.38;100.00;99725.80;5089300;56;1138784;-73
2023/05/16 01:32:31;;;;;;;5.78;3.60;;;;;;;11.39;100.00;99728.78;5138780;55;1138813;-74
2023/05/16 01:37:45;;;;;;;2.83;2.63;;;;;;;11.37;100.00;99736.87;5122735;55;1139002;-73
2023/05/16 01:42:52;;;;;;;2.90;2.70;;;;;;;11.38;100.00;99743.84;5053316;56;1138777;-73
2023/05/16 01:48:12;;;;;;;2.33;2.20;;;;;;;11.39;100.00;99748.64;5035770;56;1138776;-73
2023/05/16 01:53:27;;;;;;;4.13;2.80;;;;;;;11.40;100.00;99755.13;5189654;55;1139144;-72
2023/05/16 01:58:35;;;;;;;3.02;2.77;;;;;;;11.37;100.00;99748.78;5073370;55;1138933;-73
2023/05/16 02:03:41;;;;;;;3.43;3.13;;;;;;;11.38;100.00;99758.39;5132920;55;1138701;-74
2023/05/16 02:08:47;;;;;;;2.90;2.70;;;;;;;11.38;100.00;99767.66;5072034;57;1138938;-73
2023/05/16 02:13:55;;;;;;;4.87;2.70;;;;;;;11.37;100.00;99771.77;5068370;55;1139444;-73
2023/05/16 02:19:00;;;;;;;3.37;2.93;;;;;;;11.37;100.00;99788.50;5063622;56;1138912;-74
2023/05/16 02:24:06;;;;;;;8.57;3.30;;;;;;;11.36;100.00;99792.61;5075635;56;1138836;-74
2023/05/16 02:29:12;;;;;;;3.10;2.77;;;;;;;11.31;100.00;99787.73;5107553;56;1138927;-73
2023/05/16 02:34:17;;;;;;;2.73;2.37;;;;;;;11.32;100.00;99799.16;5120919;55;1138895;-73
2023/05/16 02:39:23;;;;;;;2.50;2.30;;;;;;;11.31;100.00;99806.25;5157077;55;1138720;-73
2023/05/16 02:44:29;;;;;;;4.75;3.22;;;;;;;11.31;100.00;99816.01;5168736;55;1138795;-73
2023/05/16 02:49:36;;;;;;;3.43;3.07;;;;;;;11.31;100.00;99818.66;5076409;55;1139017;-73
2023/05/16 02:54:42;;;;;;;3.07;2.87;;;;;;;11.28;100.00;99827.73;5032814;56;1138809;-72
2023/05/16 02:59:47;;;;;;;7.30;3.77;;;;;;;11.30;100.00;99837.70;5101785;56;1139186;-73
2023/05/16 03:04:53;;;;;;;3.73;3.13;;;;;;;11.31;100.00;99842.48;5121805;56;1138839;-73
2023/05/16 03:09:58;;;;;;;4.33;3.13;;;;;;;11.28;100.00;99848.43;5089768;55;1138731;-73
2023/05/16 03:15:05;;;;;;;6.87;3.33;;;;;;;11.27;100.00;99854.70;5071630;56;1138972;-73
2023/05/16 03:20:11;;;;;;;4.40;2.63;;;;;;;11.26;100.00;99857.48;5133115;54;1139049;-73
2023/05/16 03:25:18;;;;;;;3.87;3.52;;;;;;;11.28;100.00;99880.69;5022357;56;1138868;-74
2023/05/16 03:30:25;;;;;;;8.57;3.20;;;;;;;11.30;100.00;99875.25;5041680;56;1138962;-73
2023/05/16 03:35:32;;;;;;;9.08;3.12;;;;;;;11.27;100.00;99878.52;5091392;56;1138733;-73
2023/05/16 03:40:37;;;;;;;6.57;3.87;;;;;;;11.28;100.00;99883.33;5084148;55;1138708;-73
2023/05/16 03:45:43;;;;;;;6.43;3.87;;;;;;;11.26;100.00;99894.05;5101184;56;1138674;-73
2023/05/16 03:50:50;;;;;;;3.87;3.17;;;;;;;11.24;100.00;99891.19;5085118;55;1138789;-73
2023/05/16 03:55:55;;;;;;;4.77;3.40;;;;;;;11.23;100.00;99885.06;5080077;56;1138754;-73
2023/05/16 04:01:01;;;;;;;3.93;3.57;;;;;;;11.22;100.00;99892.66;5175154;55;1138979;-73
2023/05/16 04:06:08;;;;;;;3.70;3.20;;;;;;;11.18;100.00;99908.94;5123719;55;1138775;-73
2023/05/16 04:11:13;;;;;;;5.00;3.10;;;;;;;11.15;100.00;99925.12;5033344;57;1138971;-74
2023/05/16 04:16:19;;;;;;;6.60;3.30;;;;;;;11.15;100.00;99933.86;5000509;56;1138777;-73
2023/05/16 04:21:24;;;;;;;3.80;3.33;;;;;;;11.18;100.00;99935.41;5098950;55;1138774;-75
2023/05/16 04:26:30;;;;;;;3.92;3.35;;;;;;;11.18;100.00;99953.45;5176343;55;1138726;-74
2023/05/16 04:31:36;;;;;;;3.27;3.08;;;;;;;11.20;100.00;99958.61;5139600;55;1139191;-74
2023/05/16 04:36:42;;;;;;;3.13;2.93;;;;;;;11.20;100.00;99973.16;5077727;56;1139007;-73
2023/05/16 04:41:47;;;;;;;7.93;4.07;;;;;;;11.19;100.00;99983.41;5080690;56;1138955;-73
2023/05/16 04:46:54;;;;;;;4.07;3.10;;;;;;;11.20;100.00;100001.80;5115174;56;1138829;-73
2023/05/16 04:52:00;;;;;;;4.53;3.13;;;;;;;11.30;100.00;100016.88;5071378;55;1140935;-73
2023/05/16 04:57:06;;;;;;;3.37;2.87;;;;;;;11.35;100.00;100009.34;5126060;56;1140879;-73
2023/05/16 05:02:11;;;;;;;6.63;2.83;;;;;;;11.38;100.00;100010.41;5137687;55;1140868;-73
2023/05/16 05:07:17;;;;;;;3.20;3.00;;;;;;;11.44;100.00;100028.41;5046021;56;1140899;-72
2023/05/16 05:12:24;;;;;;;3.20;2.97;;;;;;;11.55;100.00;100054.77;5021163;56;1140941;-73
2023/05/16 05:17:29;;;;;;;3.02;2.80;;;;;;;11.63;100.00;100056.23;5070837;56;1140971;-72
2023/05/16 05:22:35;;;;;;;5.72;2.85;;;;;;;11.68;100.00;100055.34;5141452;55;1140824;-73
2023/05/16 05:27:40;;;;;;;5.97;3.00;;;;;;;11.84;100.00;100067.59;5131683;55;1140797;-73
2023/05/16 05:32:47;;;;;;;3.77;2.87;;;;;;;12.04;100.00;100071.11;5174094;55;1141045;-74
2023/05/16 05:37:53;;;;;;;2.63;2.47;;;;;;;12.17;100.00;100072.98;5150679;56;1140956;-73
2023/05/16 05:42:58;;;;;;;3.90;2.60;;;;;;;12.31;100.00;100075.69;5115516;55;1140890;-73
2023/05/16 05:48:04;;;;;;;3.08;2.85;;;;;;;12.42;100.00;100082.16;5101796;55;1141012;-73
2023/05/16 05:53:10;;;;;;;6.40;2.40;;;;;;;12.52;100.00;100071.56;5175078;55;1140838;-73
2023/05/16 05:58:17;;;;;;;4.13;2.80;;;;;;;12.66;100.00;100062.66;5175091;55;1140809;-72
2023/05/16 06:03:22;;;;;;;2.57;2.17;;;;;;;12.86;100.00;100064.75;5156695;55;1140957;-72
2023/05/16 06:08:28;;;;;;;2.00;1.90;;;;;;;13.04;100.00;100079.44;5124973;55;1141136;-74
2023/05/16 06:13:33;;;;;;;2.30;1.97;;;;;;;13.15;100.00;100087.23;5126346;55;1141042;-74
2023/05/16 06:18:39;;;;;;;2.40;2.20;;;;;;;13.25;100.00;100101.83;5182236;55;1140888;-72
2023/05/16 06:23:45;;;;;;;2.13;2.03;;;;;;;13.37;100.00;100106.80;5166303;55;1140942;-72
2023/05/16 06:28:50;;;;;;;5.00;2.57;;;;;;;13.44;100.00;100120.34;5112955;55;1140904;-72
2023/05/16 06:33:56;;;;;;;2.90;2.20;;;;;;;13.60;100.00;100121.00;5101893;55;1140910;-73
2023/05/16 06:39:02;;;;;;;2.17;1.97;;;;;;;13.69;100.00;100117.47;5166852;55;1141068;-74
2023/05/16 06:44:07;;;;;;;4.37;2.63;;;;;;;13.85;100.00;100131.44;5101003;56;1140892;-73
2023/05/16 06:49:13;;;;;;;3.03;2.40;;;;;;;13.86;100.00;100143.75;5100672;55;1141075;-74
2023/05/16 06:54:19;;;;;;;3.57;2.17;;;;;;;13.99;100.00;100142.40;5113418;55;1140903;-73
2023/05/16 06:59:24;;;;;;;5.57;3.20;;;;;;;14.18;100.00;100152.08;5116452;55;1140776;-73
2023/05/16 07:04:30;;;;;;;4.15;2.83;;;;;;;14.37;100.00;100161.22;5051098;56;1140852;-74
2023/05/16 07:09:36;;;;;;;4.83;2.93;;;;;;;14.47;100.00;100178.98;5099444;56;1141029;-74
2023/05/16 07:14:42;;;;;;;3.30;2.60;;;;;;;14.45;100.00;100192.92;5102719;55;1140948;-74
2023/05/16 07:19:47;;;;;;;3.20;2.90;;;;;;;14.58;100.00;100214.17;5121379;55;1141005;-74
2023/05/16 07:24:56;;;;;;;3.93;2.70;;;;;;;14.60;100.00;100224.67;5138035;55;1140945;-72
2023/05/16 07:30:00;;;;;;;2.60;2.40;;;;;;;14.56;100.00;100222.80;5155229;55;1140882;-73
2023/05/16 07:35:06;;;;;;;3.83;3.40;;;;;;;14.62;100.00;100226.69;5120388;55;1140814;-74
2023/05/16 07:40:13;;;;;;;5.13;3.03;;;;;;;14.68;100.00;100230.89;5104775;55;1140796;-73
2023/05/16 07:45:19;;;;;;;4.43;3.03;;;;;;;14.85;100.00;100231.05;5132514;55;1140796;-74
2023/05/16 07:50:25;;;;;;;5.97;3.07;;;;;;;15.00;100.00;100230.34;5115149;55;1140872;-73
2023/05/16 07:55:31;;;;;;;6.57;3.30;;;;;;;15.03;100.00;100231.87;5107076;55;1140812;-74
2023/05/16 08:00:36;;;;;;;4.37;3.30;;;;;;;15.14;100.00;100227.61;5143668;55;1140778;-75
2023/05/16 08:05:42;;;;;;;3.90;3.33;;;;;;;15.33;100.00;100225.25;5120876;55;1140917;-74
2023/05/16 08:10:47;;;;;;;3.53;2.87;;;;;;;15.42;100.00;100236.33;5135609;55;1140982;-73
2023/05/16 08:15:53;;;;;;;5.08;3.50;;;;;;;15.53;100.00;100232.05;5136457;55;1140871;-75
2023/05/16 08:20:59;;;;;;;5.00;3.40;;;;;;;15.47;100.00;100225.52;5176279;55;1140991;-75
2023/05/16 08:26:04;;;;;;;3.00;2.83;;;;;;;15.31;100.00;100222.74;5156819;55;1140938;-73
2023/05/16 08:31:10;;;;;;;5.20;3.03;;;;;;;15.45;100.00;100221.33;5107516;55;1140984;-73
2023/05/16 08:36:18;;;;;;;4.37;2.70;;;;;;;15.81;100.00;100229.56;5170986;55;1140931;-73
2023/05/16 08:41:24;;;;;;;2.58;2.15;;;;;;;15.89;100.00;100227.41;5120645;55;1140947;-76
2023/05/16 08:46:34;;;;;;;2.27;2.17;;;;;;;16.00;100.00;100231.65;5100860;56;1140978;-75
2023/05/16 08:51:41;;;;;;;3.12;2.70;;;;;;;15.96;100.00;100228.95;5121446;56;1141062;-75
2023/05/16 08:56:49;;;;;;;2.47;2.30;;;;;;;15.96;100.00;100236.95;5101530;56;1140946;-74
2023/05/16 09:01:55;;;;;;;3.60;2.67;;;;;;;16.07;100.00;100246.84;5106200;55;1140890;-74
2023/05/16 09:07:01;;;;;;;2.77;2.58;;;;;;;16.20;100.00;100258.38;5088699;55;1140904;-74
2023/05/16 09:12:07;;;;;;;2.47;2.37;;;;;;;16.37;100.00;100256.60;5017674;55;1141026;-73
2023/05/16 09:17:14;;;;;;;3.37;2.53;;;;;;;16.63;100.00;100268.06;5128016;55;1140841;-73
2023/05/16 09:22:22;;;;;;;2.60;2.40;;;;;;;16.75;100.00;100273.92;5128941;55;1141020;-73
2023/05/16 09:27:30;;;;;;;3.53;2.13;;;;;;;16.72;100.00;100268.91;5037214;55;1141089;-74
2023/05/16 09:32:36;;;;;;;2.20;2.10;;;;;;;16.77;100.00;100286.11;5102330;55;1140996;-74
2023/05/16 09:37:51;;;;;;;3.05;2.10;;;;;;;16.72;100.00;100286.27;5122492;55;1140983;-74
2023/05/16 09:43:05;;;;;;;2.77;2.50;;;;;;;16.72;100.00;100284.92;5105534;55;1140984;-74
2023/05/16 09:48:12;;;;;;;4.47;2.43;;;;;;;17.04;100.00;100288.98;5116151;55;1140815;-74
2023/05/16 09:53:26;;;;;;;3.00;2.63;;;;;;;17.36;100.00;100285.97;5010667;56;1140932;-74
2023/05/16 09:58:37;;;;;;;4.37;2.77;;;;;;;17.74;100.00;100275.06;5021714;54;1141147;-74
2023/05/16 10:03:45;;;;;;;3.50;2.33;;;;;;;17.98;100.00;100284.87;5017270;56;1141055;-74
2023/05/16 10:08:51;;;;;;;2.50;2.40;;;;;;;18.07;100.00;100294.53;5017913;56;1140928;-73
2023/05/16 10:13:56;;;;;;;2.17;1.93;;;;;;;18.24;100.00;100288.11;5096484;56;1140829;-73
2023/05/16 10:19:04;;;;;;;2.97;1.93;;;;;;;18.08;100.00;100281.48;5101287;55;1140813;-74
2023/05/16 10:24:12;;;;;;;4.17;2.10;;;;;;;17.96;100.00;100295.75;5082512;56;1140864;-74
2023/05/16 10:29:20;;;;;;;2.70;2.47;;;;;;;17.98;100.00;100292.90;5123204;55;1141037;-75
2023/05/16 10:34:26;;;;;;;2.90;2.27;;;;;;;17.74;100.00;100306.66;5155695;55;1140882;-73
2023/05/16 10:39:32;;;;;;;2.83;2.47;;;;;;;17.66;100.00;100306.69;5108472;55;1140898;-73
2023/05/16 10:44:40;;;;;;;4.25;2.62;;;;;;;17.69;100.00;100314.38;5177359;55;1140777;-73
2023/05/16 10:49:45;;;;;;;3.77;2.40;;;;;;;17.74;100.00;100319.20;5098230;55;1140804;-74
2023/05/16 10:54:52;;;;;;;3.37;2.23;;;;;;;17.92;100.00;100322.00;5059387;56;1140911;-74
2023/05/16 11:00:00;;;;;;;6.37;2.58;;;;;;;17.99;100.00;100327.52;5133130;55;1140834;-73
2023/05/16 11:05:07;;;;;;;5.27;3.00;;;;;;;17.97;100.00;100332.70;5176730;55;1140953;-74
2023/05/16 11:10:17;;;;;;;5.23;2.70;;;;;;;17.86;100.00;100345.95;5121496;56;1140885;-74
2023/05/16 11:15:28;;;;;;;3.70;3.40;;;;;;;17.75;100.00;100353.80;5101088;56;1140914;-74
2023/05/16 11:20:37;;;;;;;3.90;3.60;;;;;;;17.64;100.00;100359.51;5078524;56;1140893;-74
2023/05/16 11:25:48;;;;;;;6.00;5.47;;;;;;;17.44;100.00;100354.12;5094529;55;1141053;-75
2023/05/16 11:30:58;;;;;;;9.13;4.47;;;;;;;17.46;100.00;100350.28;5036432;56;1140759;-75
2023/05/16 11:36:10;;;;;;;7.80;5.70;;;;;;;17.57;100.00;100346.42;5047208;55;1140826;-75
2023/05/16 11:41:16;;;;;;;8.33;6.77;;;;;;;17.52;100.00;100367.52;5077576;56;1140890;-74
2023/05/16 11:46:44;;;;;;;6.77;6.07;;;;;;;17.51;100.00;100365.84;5054365;56;1140823;-75
2023/05/16 11:51:51;;;;;;;7.63;6.93;;;;;;;17.72;100.00;100380.08;5101110;56;1141027;-74
2023/05/16 11:56:57;;;;;;;7.67;7.05;;;;;;;17.53;100.00;100395.42;5101340;56;1140887;-75
2023/05/16 12:02:05;;;;;;;11.07;7.30;;;;;;;17.39;100.00;100403.27;5122279;55;1140818;-74
2023/05/16 12:07:10;;;;;;;8.80;7.87;;;;;;;17.30;100.00;100406.91;5101230;55;1142919;-74
2023/05/16 12:12:16;;;;;;;8.90;6.13;;;;;;;17.25;100.00;100415.95;5070756;55;1140845;-75
2023/05/16 12:17:22;;;;;;;7.27;5.80;;;;;;;17.11;100.00;100421.44;5108166;56;1140876;-74
2023/05/16 12:22:28;;;;;;;7.80;7.10;;;;;;;17.09;100.00;100423.44;4990352;56;1140977;-75
2023/05/16 12:27:34;;;;;;;8.57;6.10;;;;;;;17.43;100.00;100436.17;5096716;55;1141078;-74
2023/05/16 12:32:39;;;;;;;6.78;5.67;;;;;;;17.72;100.00;100428.23;5087374;55;1141127;-75
2023/05/16 12:37:45;;;;;;;5.83;5.35;;;;;;;18.03;100.00;100435.03;5038207;56;1140910;-74
2023/05/16 12:42:53;;;;;;;5.50;5.00;;;;;;;18.05;100.00;100429.02;5111558;55;1140896;-76
2023/05/16 12:48:06;;;;;;;5.30;4.75;;;;;;;18.08;100.00;100422.83;5099751;55;1141007;-76
2023/05/16 12:53:14;;;;;;;9.28;7.17;;;;;;;18.21;100.00;100429.83;5006765;56;1141046;-74
2023/05/16 12:58:21;;;;;;;6.90;6.30;;;;;;;17.95;100.00;100428.37;5015333;57;1141085;-75
2023/05/16 13:03:26;;;;;;;7.83;7.10;;;;;;;17.73;100.00;100436.06;5073666;55;1141134;-76
2023/05/16 13:08:32;;;;;;;6.97;6.37;;;;;;;17.70;100.00;100445.78;5115423;55;1140993;-75
2023/05/16 13:13:38;;;;;;;9.10;6.72;;;;;;;17.85;100.00;100456.15;5087075;55;1140790;-76
2023/05/16 13:18:43;;;;;;;10.88;6.67;;;;;;;17.85;100.00;100452.13;5057116;55;1140842;-76
2023/05/16 13:23:49;;;;;;;9.03;7.95;;;;;;;17.65;100.00;100454.80;5051710;55;1145772;-76
2023/05/16 13:28:55;;;;;;;9.47;8.07;;;;;;;17.43;100.00;100456.23;5074399;55;1140961;-76
2023/05/16 13:34:00;;;;;;;10.77;8.43;;;;;;;17.15;100.00;100476.21;5092668;55;1140760;-76
2023/05/16 13:39:06;;;;;;;13.70;8.53;;;;;;;17.02;100.00;100478.51;5051591;55;1142980;-75
2023/05/16 13:44:11;;;;;;;13.53;7.93;;;;;;;16.85;100.00;100481.11;5110306;55;1142820;-75
2023/05/16 13:49:17;;;;;;;10.67;8.27;;;;;;;16.60;100.00;100474.45;5108874;55;1142975;-75
2023/05/16 13:54:23;;;;;;;12.70;8.47;;;;;;;16.42;100.00;100474.52;4964220;57;1142925;-74
2023/05/16 13:59:28;;;;;;;12.17;9.40;;;;;;;16.33;100.00;100476.31;4916286;57;1171783;-73
2023/05/16 14:04:34;;;;;;;12.27;9.40;;;;;;;16.22;100.00;100476.55;4837289;56;1143053;-73
2023/05/16 14:09:40;;;;;;;11.03;8.93;;;;;;;16.21;100.00;100483.38;4943908;57;1143057;-72
2023/05/16 14:14:45;;;;;;;10.00;8.05;;;;;;;16.19;100.00;100495.56;4981845;57;1143059;-72
2023/05/16 14:19:52;;;;;;;10.87;8.73;;;;;;;16.21;100.00;100498.88;4900576;57;1142859;-72
2023/05/16 14:24:58;;;;;;;9.98;8.75;;;;;;;16.13;100.00;100496.17;4976119;57;1143007;-73
2023/05/16 14:30:04;;;;;;;10.17;8.87;;;;;;;16.03;100.00;100500.77;4966435;58;1140902;-73
2023/05/16 14:35:10;;;;;;;12.77;8.57;;;;;;;15.88;100.00;100499.15;4946719;58;1143156;-73
2023/05/16 14:40:16;;;;;;;14.10;9.30;;;;;;;15.74;100.00;100489.83;4984150;57;1143085;-72
2023/05/16 14:45:23;;;;;;;13.37;9.00;;;;;;;15.68;100.00;100490.46;4997652;56;1142985;-73
2023/05/16 14:50:29;;;;;;;11.47;8.10;;;;;;;15.64;100.00;100497.58;4967369;57;1143104;-73
2023/05/16 14:55:35;;;;;;;11.50;9.40;;;;;;;15.64;100.00;100497.58;4943513;57;1143375;-73
2023/05/16 15:00:40;;;;;;;10.58;8.05;;;;;;;15.56;100.00;100497.02;4966368;57;1143093;-73
2023/05/16 15:05:46;;;;;;;10.23;7.72;;;;;;;15.50;100.00;100502.91;5033424;56;1143037;-73
2023/05/16 15:10:52;;;;;;;11.37;8.77;;;;;;;15.57;100.00;100505.84;5007891;56;1143143;-72
2023/05/16 15:15:57;;;;;;;12.98;8.98;;;;;;;15.65;100.00;100505.42;4951507;56;1143025;-73
2023/05/16 15:21:03;;;;;;;12.63;9.00;;;;;;;15.66;100.00;100513.77;4970518;57;1143021;-73
2023/05/16 15:26:09;;;;;;;11.80;8.13;;;;;;;15.61;100.00;100520.53;4944368;57;1142875;-73
2023/05/16 15:31:14;;;;;;;12.70;8.00;;;;;;;15.65;100.00;100524.08;5078418;56;1143287;-74
2023/05/16 15:36:20;;;;;;;11.60;8.93;;;;;;;15.55;100.00;100527.78;5116483;56;1143083;-74
2023/05/16 15:41:26;;;;;;;10.87;9.20;;;;;;;15.43;100.00;100529.80;5096457;56;1143046;-74
2023/05/16 15:46:31;;;;;;;13.33;8.37;;;;;;;15.31;100.00;100531.84;5072518;56;1258353;-74
2023/05/16 15:51:37;;;;;;;13.62;9.18;;;;;;;15.12;100.00;100533.30;5040587;56;1261152;-74
2023/05/16 15:56:43;;;;;;;16.90;10.82;;;;;;;14.99;100.00;100547.42;5018837;56;1143414;-73
2023/05/16 16:01:48;;;;;;;19.62;12.88;;;;;;;14.79;100.00;100541.36;5031955;57;1145078;-74
2023/05/16 16:06:55;;;;;;;19.65;12.70;;;;;;;14.53;100.00;100558.92;5128680;56;1145027;-73
2023/05/16 16:12:01;;;;;;;23.60;13.93;;;;;;;14.34;100.00;100561.95;5031731;57;1145159;-73
2023/05/16 16:17:06;;;;;;;21.13;15.20;;;;;;;14.19;100.00;100555.39;5031351;57;1144960;-74
2023/05/16 16:22:12;;;;;;;21.23;14.07;;;;;;;13.98;100.00;100559.52;5003749;57;1145381;-74
2023/05/16 16:27:18;;;;;;;25.63;15.63;;;;;;;13.91;100.00;100555.72;5037888;57;1145026;-75
2023/05/16 16:32:23;;;;;;;24.67;16.03;;;;;;;13.91;100.00;100562.86;5012260;57;1145008;-75
2023/05/16 16:37:29;;;;;;;21.93;15.50;;;;;;;13.84;100.00;100558.60;5096206;56;1144982;-75
2023/05/16 16:42:36;;;;;;;21.57;13.27;;;;;;;13.78;100.00;100564.95;5039182;56;1145092;-75
2023/05/16 16:47:42;;;;;;;18.62;13.60;;;;;;;13.79;100.00;100573.27;4952693;57;1145241;-73
2023/05/16 16:52:47;;;;;;;19.27;12.63;;;;;;;13.75;100.00;100585.19;4968280;57;1145015;-74
2023/05/16 16:57:53;;;;;;;18.87;12.40;;;;;;;13.75;100.00;100586.52;5116121;56;1145014;-73
2023/05/16 17:02:59;;;;;;;15.40;10.87;;;;;;;13.67;100.00;100595.16;5095875;56;1145059;-73
2023/05/16 17:08:05;;;;;;;22.13;10.37;;;;;;;13.60;100.00;100601.98;5076590;56;1144975;-74
2023/05/16 17:13:13;;;;;;;14.87;10.00;;;;;;;13.56;100.00;100613.88;5012748;57;1145102;-74
2023/05/16 17:18:20;;;;;;;13.17;9.00;;;;;;;13.51;100.00;100606.31;5025662;56;1145034;-74
2023/05/16 17:23:25;;;;;;;19.20;10.40;;;;;;;13.41;100.00;100620.55;5032813;57;1142951;-74
2023/05/16 17:28:31;;;;;;;14.43;9.67;;;;;;;13.25;100.00;100615.73;4931978;56;1145097;-75
2023/05/16 17:33:37;;;;;;;16.67;9.67;;;;;;;13.17;100.00;100617.71;5013055;57;1143001;-74
2023/05/16 17:38:42;;;;;;;15.30;9.55;;;;;;;13.06;100.00;100620.44;5117202;56;1142941;-74
2023/05/16 17:43:48;;;;;;;17.25;8.38;;;;;;;13.08;100.00;100633.58;5097069;56;1142916;-74
2023/05/16 17:48:54;;;;;;;15.50;9.30;;;;;;;13.09;100.00;100640.09;5081526;56;1143006;-74
2023/05/16 17:54:00;;;;;;;11.27;7.90;;;;;;;13.00;100.00;100641.70;5069892;56;1143004;-73
2023/05/16 17:59:05;;;;;;;13.87;6.33;;;;;;;13.00;100.00;100643.03;5058505;56;1143044;-74
2023/05/16 18:04:11;;;;;;;12.50;7.47;;;;;;;13.00;100.00;100644.84;4983228;56;1142986;-74
2023/05/16 18:09:17;;;;;;;15.53;8.60;;;;;;;13.00;100.00;100641.70;5013140;57;1142919;-74
2023/05/16 18:14:23;;;;;;;12.13;7.77;;;;;;;12.95;100.00;100637.30;5032632;57;1143102;-74
2023/05/16 18:19:29;;;;;;;24.33;16.77;;;;;;;12.98;100.00;100647.66;5012947;56;1142980;-73
2023/05/16 18:24:36;;;;;;;18.37;13.87;;;;;;;12.89;100.00;100647.58;5012394;57;1145220;-75
2023/05/16 18:29:41;;;;;;;17.27;8.37;;;;;;;12.84;100.00;100657.25;5018088;57;1144973;-74
2023/05/16 18:34:47;;;;;;;43.58;35.33;;;;;;;12.80;100.00;100661.16;5094489;56;1143089;-74
2023/05/16 18:39:53;;;;;;;17.70;10.32;;;;;;;12.81;100.00;100668.64;5010047;57;1166540;-74
2023/05/16 18:44:58;;;;;;;9.93;6.93;;;;;;;12.82;100.00;100672.98;5092645;56;1145093;-74
2023/05/16 18:50:04;;;;;;;22.63;9.07;;;;;;;12.77;100.00;100675.17;5027497;56;1140891;-74
2023/05/16 18:55:10;;;;;;;11.77;6.80;;;;;;;12.78;100.00;100688.31;4946926;57;1143068;-74
2023/05/16 19:00:16;;;;;;;12.00;7.47;;;;;;;12.80;100.00;100692.17;4951567;57;1143104;-75
2023/05/16 19:05:22;;;;;;;10.37;5.93;;;;;;;12.82;100.00;100693.73;4969204;57;1142876;-73
2023/05/16 19:10:28;;;;;;;19.90;10.57;;;;;;;12.82;100.00;100694.22;5010085;57;1142936;-74
2023/05/16 19:15:35;;;;;;;9.70;7.13;;;;;;;12.78;100.00;100702.06;5010158;57;1145159;-74
2023/05/16 19:20:41;;;;;;;15.32;8.55;;;;;;;12.73;100.00;100709.08;5030693;56;1140884;-74
2023/05/16 19:25:47;;;;;;;11.28;7.78;;;;;;;12.72;100.00;100708.72;4929854;58;1143280;-73
2023/05/16 19:30:53;;;;;;;21.35;7.67;;;;;;;12.71;100.00;100708.36;5010780;57;1143067;-74
2023/05/16 19:35:59;;;;;;;12.30;7.27;;;;;;;12.72;100.00;100714.52;4985211;57;1143048;-74
2023/05/16 19:41:04;;;;;;;12.33;6.50;;;;;;;12.67;100.00;100713.59;5010414;57;1142879;-77
2023/05/16 19:46:10;;;;;;;13.40;7.33;;;;;;;12.64;100.00;100714.69;4952899;57;1142946;-76
2023/05/16 19:51:16;;;;;;;12.47;7.10;;;;;;;12.61;100.00;100716.26;4877549;57;1143049;-75
2023/05/16 19:56:22;;;;;;;12.37;6.33;;;;;;;12.57;100.00;100713.49;5030029;57;1142971;-74
2023/05/16 20:01:27;;;;;;;12.77;7.40;;;;;;;12.54;100.00;100716.88;4916065;57;1143068;-75
2023/05/16 20:06:33;;;;;;;10.78;6.90;;;;;;;12.49;100.00;100705.34;4851206;57;1143115;-75
2023/05/16 20:11:38;;;;;;;11.20;7.60;;;;;;;12.45;100.00;100713.67;4881172;57;1241181;-76
2023/05/16 20:16:44;;;;;;;18.82;6.60;;;;;;;12.36;100.00;100711.30;4927049;57;1142936;-76
2023/05/16 20:21:50;;;;;;;14.05;7.90;;;;;;;12.31;100.00;100714.80;4929556;58;1142952;-76
2023/05/16 20:26:56;;;;;;;21.20;8.07;;;;;;;12.27;100.00;100712.88;4948786;58;1143219;-77
2023/05/16 20:32:04;;;;;;;13.07;6.37;;;;;;;12.18;100.00;100707.01;4929285;57;1143040;-76
2023/05/16 20:37:10;;;;;;;12.73;8.13;;;;;;;12.13;100.00;100709.66;4931561;57;1143109;-76
2023/05/16 20:42:16;;;;;;;14.17;6.97;;;;;;;12.12;100.00;100714.60;5010834;56;1143165;-77
2023/05/16 20:47:21;;;;;;;14.60;6.93;;;;;;;12.07;100.00;100716.80;5034832;56;1142915;-77
2023/05/16 20:52:27;;;;;;;15.77;8.47;;;;;;;12.08;100.00;100720.62;5027777;56;1142954;-76
2023/05/16 20:57:32;;;;;;;11.37;7.63;;;;;;;12.07;100.00;100719.45;5007904;57;1143016;-76
2023/05/16 21:02:38;;;;;;;9.30;5.83;;;;;;;12.09;100.00;100730.75;4945527;58;1143159;-76
2023/05/16 21:07:44;;;;;;;10.98;6.08;;;;;;;12.05;100.00;100725.36;4926343;58;1141057;-76
2023/05/16 21:12:49;;;;;;;12.67;6.40;;;;;;;12.09;100.00;100737.38;4951649;57;1143029;-76
2023/05/16 21:17:55;;;;;;;10.40;5.78;;;;;;;12.10;100.00;100739.06;4949750;58;1142837;-76
2023/05/16 21:23:00;;;;;;;15.10;6.27;;;;;;;12.12;100.00;100748.59;4930086;58;1142857;-76
2023/05/16 21:28:06;;;;;;;10.33;5.63;;;;;;;12.10;100.00;100749.19;4930440;57;1143018;-76
2023/05/16 21:33:13;;;;;;;13.67;6.70;;;;;;;12.09;100.00;100747.50;4945335;57;1143091;-76
2023/05/16 21:38:18;;;;;;;11.85;5.85;;;;;;;12.04;100.00;100748.38;4929956;58;1143216;-76
2023/05/16 21:43:24;;;;;;;9.25;6.92;;;;;;;12.00;100.00;100748.73;4930558;56;1143095;-75
2023/05/16 21:48:29;;;;;;;12.27;8.10;;;;;;;12.00;100.00;100748.25;5030937;57;1140788;-76
2023/05/16 21:53:37;;;;;;;10.33;8.30;;;;;;;11.97;100.00;100745.36;4929943;57;1142828;-76
2023/05/16 21:58:42;;;;;;;10.60;7.95;;;;;;;11.96;100.00;100737.05;4930075;58;1142884;-76
2023/05/16 22:03:48;;;;;;;8.95;6.65;;;;;;;11.95;100.00;100751.74;4949569;58;1143118;-76
2023/05/16 22:08:53;;;;;;;16.27;9.68;;;;;;;11.98;100.00;100748.38;4887212;57;1140914;-76
2023/05/16 22:13:59;;;;;;;15.60;10.83;;;;;;;11.98;100.00;100755.00;5010796;57;1143130;-75
2023/05/16 22:19:05;;;;;;;17.47;11.67;;;;;;;11.91;100.00;100761.77;5030282;57;1145062;-76
2023/05/16 22:24:10;;;;;;;20.63;11.33;;;;;;;11.89;100.00;100752.25;5010603;57;1145045;-76
2023/05/16 22:29:16;;;;;;;20.57;11.12;;;;;;;11.84;100.00;100758.38;5027110;57;1145003;-76
2023/05/16 22:34:22;;;;;;;18.57;11.93;;;;;;;11.84;100.00;100756.58;4898750;58;1144992;-76
2023/05/16 22:39:28;;;;;;;19.37;13.47;;;;;;;11.84;100.00;100755.73;4949448;57;1145024;-76
2023/05/16 22:44:33;;;;;;;18.97;14.30;;;;;;;11.88;100.00;100749.23;4853994;58;1145071;-76
2023/05/16 22:49:40;;;;;;;19.20;13.53;;;;;;;11.94;100.00;100760.66;4925966;57;1145168;-77
2023/05/16 22:54:45;;;;;;;24.43;12.33;;;;;;;11.95;100.00;100761.86;4951586;57;1145082;-76